createdAt,value
2023-01-23T00:00:53.247Z,93.060
2023-01-23T00:01:52.933Z,93.237
2023-01-23T00:02:52.721Z,93.250
2023-01-23T00:04:52.358Z,93.168
2023-01-23T00:05:53.037Z,93.147
2023-01-23T00:06:52.828Z,93.126
2023-01-23T00:07:52.657Z,93.134
2023-01-23T00:09:53.208Z,93.048
2023-01-23T00:10:52.898Z,93.041
2023-01-23T00:11:52.614Z,93.105
2023-01-23T00:12:53.278Z,92.983
2023-01-23T00:13:52.983Z,93.058
2023-01-23T00:14:52.598Z,93.098
2023-01-23T00:15:53.389Z,92.999
2023-01-23T00:16:53.277Z,93.025
2023-01-23T00:17:52.989Z,92.878
2023-01-23T00:19:53.303Z,92.989
2023-01-23T00:20:52.969Z,92.997
2023-01-23T00:21:52.612Z,92.846
2023-01-23T00:22:52.587Z,92.571
2023-01-23T00:24:52.899Z,92.617
2023-01-23T00:25:52.456Z,92.558
2023-01-23T00:27:52.720Z,92.510
2023-01-23T00:29:53.028Z,92.508
2023-01-23T00:30:52.945Z,92.568
2023-01-23T00:32:52.801Z,92.617
2023-01-23T00:33:52.436Z,92.516
2023-01-23T00:34:53.016Z,92.512
2023-01-23T00:35:52.683Z,92.291
2023-01-23T00:37:53.113Z,92.358
2023-01-23T00:38:52.940Z,92.314
2023-01-23T00:39:52.663Z,92.413
2023-01-23T00:40:53.274Z,92.465
2023-01-23T00:41:52.986Z,92.455
2023-01-23T00:42:52.713Z,92.560
2023-01-23T00:44:52.911Z,92.451
2023-01-23T00:45:52.755Z,92.419
2023-01-23T00:46:52.524Z,92.486
2023-01-23T00:47:53.133Z,92.528
2023-01-23T00:49:52.444Z,92.766
2023-01-23T00:50:53.139Z,92.705
2023-01-23T00:51:53.059Z,92.663
2023-01-23T00:52:52.676Z,92.661
2023-01-23T00:54:52.996Z,92.751
2023-01-23T00:55:52.676Z,92.899
2023-01-23T00:56:53.376Z,92.882
2023-01-23T00:57:53.056Z,92.770
2023-01-23T00:58:52.665Z,92.638
2023-01-23T00:59:53.340Z,92.505
2023-01-23T01:00:53.175Z,92.512
2023-01-23T01:01:53.009Z,92.478
2023-01-23T01:02:52.776Z,92.363
2023-01-23T01:03:52.767Z,92.533
2023-01-23T01:04:52.442Z,92.491
2023-01-23T01:05:53.122Z,92.587
2023-01-23T01:06:52.762Z,92.672
2023-01-23T01:07:52.501Z,92.690
2023-01-23T01:08:53.167Z,92.766
2023-01-23T01:09:52.922Z,92.825
2023-01-23T01:10:52.607Z,92.919
2023-01-23T01:11:53.199Z,92.785
2023-01-23T01:12:52.870Z,92.779
2023-01-23T01:13:52.487Z,92.774
2023-01-23T01:14:53.124Z,92.392
2023-01-23T01:15:52.819Z,92.438
2023-01-23T01:16:52.842Z,92.257
2023-01-23T01:17:52.480Z,92.259
2023-01-23T01:18:53.060Z,92.066
2023-01-23T01:19:52.675Z,91.950
2023-01-23T01:21:53.112Z,91.572
2023-01-23T01:22:52.788Z,91.353
2023-01-23T01:23:52.511Z,91.673
2023-01-23T01:24:53.239Z,91.955
2023-01-23T01:25:53.124Z,91.915
2023-01-23T01:26:52.700Z,92.072
2023-01-23T01:27:53.416Z,92.098
2023-01-23T01:28:53.099Z,92.138
2023-01-23T01:29:52.768Z,91.948
2023-01-23T01:30:52.649Z,91.810
2023-01-23T01:31:52.719Z,92.201
2023-01-23T01:32:52.474Z,92.129
2023-01-23T01:33:53.318Z,92.070
2023-01-23T01:34:52.995Z,91.976
2023-01-23T01:35:52.783Z,91.913
2023-01-23T01:36:52.494Z,91.917
2023-01-23T01:37:53.405Z,92.096
2023-01-23T01:38:53.070Z,92.226
2023-01-23T01:39:52.737Z,92.381
2023-01-23T01:40:52.374Z,92.497
2023-01-23T01:41:53.140Z,92.407
2023-01-23T01:42:52.837Z,92.320
2023-01-23T01:43:52.427Z,92.154
2023-01-23T01:44:53.015Z,92.110
2023-01-23T01:45:52.750Z,92.180
2023-01-23T01:46:52.542Z,92.270
2023-01-23T01:47:53.219Z,92.297
2023-01-23T01:49:52.528Z,92.554
2023-01-23T01:50:53.364Z,92.524
2023-01-23T01:51:53.055Z,92.497
2023-01-23T01:52:52.720Z,92.592
2023-01-23T01:53:52.400Z,92.684
2023-01-23T01:54:53.043Z,92.724
2023-01-23T01:55:52.749Z,92.659
2023-01-23T01:56:53.373Z,92.730
2023-01-23T01:57:53.089Z,92.447
2023-01-23T01:58:52.715Z,92.400
2023-01-23T01:59:53.359Z,92.442
2023-01-23T02:00:53.307Z,92.789
2023-01-23T02:01:53.187Z,92.653
2023-01-23T02:02:52.908Z,92.445
2023-01-23T02:03:52.606Z,92.457
2023-01-23T02:04:53.291Z,92.146
2023-01-23T02:06:52.533Z,92.201
2023-01-23T02:07:53.231Z,91.814
2023-01-23T02:08:52.919Z,91.681
2023-01-23T02:09:52.535Z,91.932
2023-01-23T02:11:52.797Z,91.963
2023-01-23T02:12:52.780Z,91.854
2023-01-23T02:13:52.374Z,91.818
2023-01-23T02:14:52.932Z,91.776
2023-01-23T02:15:52.527Z,91.951
2023-01-23T02:16:53.398Z,91.503
2023-01-23T02:17:53.193Z,91.480
2023-01-23T02:18:52.783Z,91.541
2023-01-23T02:19:52.605Z,91.034
2023-01-23T02:21:53.096Z,91.177
2023-01-23T02:22:53.259Z,91.423
2023-01-23T02:23:52.948Z,91.513
2023-01-23T02:24:52.570Z,91.801
2023-01-23T02:25:53.173Z,92.247
2023-01-23T02:26:52.812Z,92.411
2023-01-23T02:27:52.423Z,92.367
2023-01-23T02:28:53.041Z,92.547
2023-01-23T02:29:52.703Z,92.678
2023-01-23T02:30:52.482Z,92.587
2023-01-23T02:31:53.661Z,92.684
2023-01-23T02:32:52.566Z,92.587
2023-01-23T02:33:53.198Z,92.510
2023-01-23T02:34:52.750Z,92.426
2023-01-23T02:35:52.619Z,92.455
2023-01-23T02:36:53.298Z,92.426
2023-01-23T02:37:52.951Z,92.518
2023-01-23T02:38:52.718Z,92.556
2023-01-23T02:39:52.618Z,92.592
2023-01-23T02:40:54.894Z,92.589
2023-01-23T02:41:52.639Z,92.554
2023-01-23T02:42:53.232Z,92.445
2023-01-23T02:43:52.900Z,92.449
2023-01-23T02:44:52.567Z,92.640
2023-01-23T02:45:53.274Z,92.569
2023-01-23T02:46:53.220Z,92.432
2023-01-23T02:47:52.871Z,92.442
2023-01-23T02:48:52.467Z,92.463
2023-01-23T02:49:53.189Z,92.356
2023-01-23T02:50:53.085Z,92.402
2023-01-23T02:51:53.059Z,92.198
2023-01-23T02:52:52.943Z,92.409
2023-01-23T02:53:52.659Z,92.379
2023-01-23T02:54:53.308Z,92.442
2023-01-23T02:55:52.956Z,92.545
2023-01-23T02:56:52.586Z,92.608
2023-01-23T02:57:53.227Z,92.342
2023-01-23T02:58:52.863Z,92.213
2023-01-23T02:59:52.460Z,91.990
2023-01-23T03:00:53.283Z,92.051
2023-01-23T03:01:53.343Z,92.081
2023-01-23T03:02:53.111Z,92.123
2023-01-23T03:03:52.770Z,92.014
2023-01-23T03:04:52.532Z,92.074
2023-01-23T03:05:53.230Z,92.037
2023-01-23T03:06:52.997Z,91.988
2023-01-23T03:07:52.771Z,92.013
2023-01-23T03:08:52.426Z,91.635
2023-01-23T03:09:53.086Z,91.742
2023-01-23T03:10:52.782Z,91.520
2023-01-23T03:11:52.525Z,91.251
2023-01-23T03:12:53.203Z,91.099
2023-01-23T03:13:52.825Z,91.362
2023-01-23T03:14:52.467Z,91.211
2023-01-23T03:15:53.155Z,90.975
2023-01-23T03:16:53.113Z,90.603
2023-01-23T03:17:52.906Z,90.616
2023-01-23T03:18:57.403Z,90.298
2023-01-23T03:19:53.125Z,90.380
2023-01-23T03:20:52.796Z,90.407
2023-01-23T03:21:52.458Z,90.645
2023-01-23T03:22:53.219Z,90.658
2023-01-23T03:23:53.339Z,90.872
2023-01-23T03:24:53.276Z,90.666
2023-01-23T03:25:53.070Z,90.815
2023-01-23T03:26:52.939Z,91.068
2023-01-23T03:28:52.823Z,91.147
2023-01-23T03:29:52.658Z,91.099
2023-01-23T03:30:52.581Z,91.150
2023-01-23T03:31:53.545Z,91.078
2023-01-23T03:33:53.028Z,90.511
2023-01-23T03:34:52.718Z,90.374
2023-01-23T03:35:52.466Z,90.893
2023-01-23T03:36:52.922Z,90.914
2023-01-23T03:37:52.489Z,90.077
2023-01-23T03:38:53.231Z,90.002
2023-01-23T03:39:53.129Z,89.253
2023-01-23T03:40:52.831Z,90.759
2023-01-23T03:41:52.444Z,91.318
2023-01-23T03:42:53.005Z,91.360
2023-01-23T03:43:56.127Z,91.686
2023-01-23T03:44:52.874Z,91.786
2023-01-23T03:45:53.225Z,91.450
2023-01-23T03:46:52.883Z,92.241
2023-01-23T03:47:52.528Z,91.116
2023-01-23T03:48:53.157Z,91.883
2023-01-23T03:49:52.892Z,91.759
2023-01-23T03:50:52.690Z,92.152
2023-01-23T03:51:52.555Z,92.344
2023-01-23T03:52:53.355Z,92.560
2023-01-23T03:53:53.072Z,92.730
2023-01-23T03:54:52.877Z,92.814
2023-01-23T03:55:52.754Z,92.852
2023-01-23T03:56:52.363Z,92.941
2023-01-23T03:57:52.966Z,93.025
2023-01-23T03:58:52.602Z,92.924
2023-01-23T03:59:53.204Z,92.865
2023-01-23T04:00:53.016Z,92.884
2023-01-23T04:01:52.735Z,92.686
2023-01-23T04:02:53.439Z,92.733
2023-01-23T04:03:53.255Z,92.686
2023-01-23T04:04:52.902Z,92.598
2023-01-23T04:05:52.757Z,91.719
2023-01-23T04:06:52.418Z,91.034
2023-01-23T04:07:52.989Z,90.601
2023-01-23T04:08:52.714Z,90.895
2023-01-23T04:09:52.447Z,90.656
2023-01-23T04:10:52.831Z,90.622
2023-01-23T04:11:52.515Z,90.864
2023-01-23T04:12:53.211Z,90.830
2023-01-23T04:14:52.469Z,90.527
2023-01-23T04:15:53.280Z,90.668
2023-01-23T04:16:57.469Z,90.420
2023-01-23T04:17:54.652Z,90.567
2023-01-23T04:18:53.386Z,90.712
2023-01-23T04:19:53.002Z,89.100
2023-01-23T04:20:52.939Z,88.743
2023-01-23T04:21:52.481Z,88.738
2023-01-23T04:22:53.154Z,88.181
2023-01-23T04:23:52.900Z,87.906
2023-01-23T04:24:52.587Z,87.997
2023-01-23T04:25:53.479Z,87.763
2023-01-23T04:26:53.442Z,87.290
2023-01-23T04:27:53.103Z,87.519
2023-01-23T04:28:52.806Z,87.545
2023-01-23T04:29:52.447Z,87.616
2023-01-23T04:30:53.499Z,87.523
2023-01-23T04:31:52.898Z,87.603
2023-01-23T04:32:52.601Z,87.658
2023-01-23T04:33:53.310Z,87.488
2023-01-23T04:34:53.038Z,87.885
2023-01-23T04:35:52.806Z,87.244
2023-01-23T04:36:52.551Z,87.807
2023-01-23T04:37:53.187Z,87.761
2023-01-23T04:38:52.916Z,87.780
2023-01-23T04:39:52.601Z,88.026
2023-01-23T04:40:53.254Z,87.406
2023-01-23T04:41:52.992Z,87.742
2023-01-23T04:42:52.607Z,87.902
2023-01-23T04:43:53.383Z,88.083
2023-01-23T04:44:53.051Z,88.474
2023-01-23T04:45:52.783Z,88.018
2023-01-23T04:46:52.526Z,88.100
2023-01-23T04:47:53.130Z,88.266
2023-01-23T04:48:52.783Z,88.060
2023-01-23T04:49:52.423Z,87.793
2023-01-23T04:50:53.261Z,87.774
2023-01-23T04:51:53.182Z,87.429
2023-01-23T04:52:52.911Z,87.503
2023-01-23T04:53:52.575Z,87.715
2023-01-23T04:54:53.262Z,87.313
2023-01-23T04:56:52.626Z,87.486
2023-01-23T04:57:53.271Z,87.236
2023-01-23T04:58:52.919Z,87.441
2023-01-23T04:59:52.494Z,87.719
2023-01-23T05:01:53.238Z,87.027
2023-01-23T05:02:53.113Z,87.320
2023-01-23T05:03:52.708Z,87.078
2023-01-23T05:04:52.380Z,87.574
2023-01-23T05:05:53.119Z,87.761
2023-01-23T05:06:52.793Z,87.910
2023-01-23T05:07:53.299Z,87.696
2023-01-23T05:08:54.263Z,87.776
2023-01-23T05:09:53.014Z,87.591
2023-01-23T05:10:52.708Z,87.271
2023-01-23T05:11:52.392Z,87.601
2023-01-23T05:12:52.995Z,87.507
2023-01-23T05:13:52.852Z,87.891
2023-01-23T05:14:52.463Z,87.441
2023-01-23T05:15:53.151Z,87.463
2023-01-23T05:16:53.032Z,86.908
2023-01-23T05:18:53.234Z,87.292
2023-01-23T05:19:53.095Z,87.254
2023-01-23T05:20:52.810Z,87.288
2023-01-23T05:21:52.451Z,87.631
2023-01-23T05:22:53.108Z,87.769
2023-01-23T05:23:53.336Z,86.901
2023-01-23T05:24:53.022Z,86.878
2023-01-23T05:25:52.899Z,87.265
2023-01-23T05:26:52.692Z,87.374
2023-01-23T05:27:52.442Z,86.836
2023-01-23T05:28:53.078Z,86.443
2023-01-23T05:29:52.733Z,85.735
2023-01-23T05:30:52.655Z,86.216
2023-01-23T05:31:52.830Z,86.168
2023-01-23T05:33:53.073Z,86.411
2023-01-23T05:34:52.658Z,86.388
2023-01-23T05:35:53.423Z,86.945
2023-01-23T05:36:53.090Z,86.985
2023-01-23T05:37:52.679Z,86.556
2023-01-23T05:38:52.544Z,86.561
2023-01-23T05:39:53.188Z,85.524
2023-01-23T05:40:52.796Z,85.958
2023-01-23T05:41:52.412Z,85.142
2023-01-23T05:42:53.063Z,84.637
2023-01-23T05:43:52.755Z,85.344
2023-01-23T05:44:52.371Z,85.314
2023-01-23T05:45:53.056Z,84.940
2023-01-23T05:46:53.007Z,85.150
2023-01-23T05:47:52.651Z,85.547
2023-01-23T05:48:53.360Z,85.804
2023-01-23T05:49:53.053Z,86.132
2023-01-23T05:50:53.985Z,86.123
2023-01-23T05:51:52.759Z,86.403
2023-01-23T05:52:52.410Z,86.521
2023-01-23T05:53:53.065Z,86.660
2023-01-23T05:54:52.822Z,87.065
2023-01-23T05:55:52.514Z,86.712
2023-01-23T05:56:53.194Z,86.117
2023-01-23T05:57:52.904Z,86.464
2023-01-23T05:58:52.586Z,86.256
2023-01-23T06:00:53.171Z,86.065
2023-01-23T06:01:52.965Z,86.338
2023-01-23T06:02:52.951Z,86.483
2023-01-23T06:03:52.763Z,86.630
2023-01-23T06:04:54.943Z,86.451
2023-01-23T06:05:53.372Z,86.481
2023-01-23T06:06:53.020Z,85.939
2023-01-23T06:07:52.637Z,84.677
2023-01-23T06:08:53.375Z,84.658
2023-01-23T06:09:52.974Z,84.761
2023-01-23T06:10:52.968Z,85.377
2023-01-23T06:11:52.691Z,85.150
2023-01-23T06:12:53.323Z,85.909
2023-01-23T06:13:53.103Z,85.554
2023-01-23T06:14:52.795Z,84.860
2023-01-23T06:15:52.731Z,85.180
2023-01-23T06:16:52.658Z,85.569
2023-01-23T06:17:53.393Z,85.693
2023-01-23T06:18:53.210Z,85.678
2023-01-23T06:19:52.842Z,85.993
2023-01-23T06:21:53.155Z,86.515
2023-01-23T06:22:52.820Z,86.512
2023-01-23T06:23:52.540Z,86.073
2023-01-23T06:24:53.273Z,86.491
2023-01-23T06:26:52.921Z,86.613
2023-01-23T06:27:54.776Z,86.641
2023-01-23T06:28:52.525Z,86.376
2023-01-23T06:29:53.105Z,86.397
2023-01-23T06:30:52.824Z,86.699
2023-01-23T06:31:53.292Z,86.353
2023-01-23T06:32:52.931Z,86.470
2023-01-23T06:33:52.571Z,86.538
2023-01-23T06:34:53.169Z,87.339
2023-01-23T06:35:52.989Z,87.425
2023-01-23T06:36:52.695Z,87.135
2023-01-23T06:37:53.284Z,87.294
2023-01-23T06:38:52.996Z,87.116
2023-01-23T06:39:52.711Z,87.204
2023-01-23T06:40:52.599Z,86.969
2023-01-23T06:42:52.812Z,87.374
2023-01-23T06:43:52.455Z,87.191
2023-01-23T06:44:53.078Z,86.891
2023-01-23T06:45:52.726Z,86.924
2023-01-23T06:46:52.575Z,86.958
2023-01-23T06:47:53.342Z,87.034
2023-01-23T06:48:53.059Z,87.095
2023-01-23T06:49:52.650Z,86.937
2023-01-23T06:50:53.370Z,87.198
2023-01-23T06:52:52.894Z,86.855
2023-01-23T06:53:52.564Z,86.559
2023-01-23T06:54:53.220Z,86.973
2023-01-23T06:55:52.361Z,87.019
2023-01-23T06:56:53.110Z,87.303
2023-01-23T06:57:52.730Z,86.733
2023-01-23T06:58:53.406Z,86.475
2023-01-23T06:59:53.056Z,86.792
2023-01-23T07:00:52.743Z,87.086
2023-01-23T07:01:52.590Z,87.366
2023-01-23T07:02:52.504Z,86.729
2023-01-23T07:03:53.213Z,86.306
2023-01-23T07:04:52.821Z,87.544
2023-01-23T07:05:52.439Z,87.038
2023-01-23T07:06:53.039Z,87.051
2023-01-23T07:07:52.791Z,86.340
2023-01-23T07:08:52.427Z,86.620
2023-01-23T07:09:53.027Z,86.683
2023-01-23T07:10:52.751Z,86.542
2023-01-23T07:11:52.431Z,86.708
2023-01-23T07:12:53.079Z,86.443
2023-01-23T07:13:52.758Z,86.725
2023-01-23T07:15:53.421Z,86.563
2023-01-23T07:16:53.303Z,86.422
2023-01-23T07:17:52.959Z,86.472
2023-01-23T07:18:52.699Z,86.653
2023-01-23T07:20:53.022Z,86.887
2023-01-23T07:21:54.638Z,86.710
2023-01-23T07:22:53.306Z,86.586
2023-01-23T07:23:53.114Z,86.580
2023-01-23T07:25:52.664Z,87.194
2023-01-23T07:26:53.413Z,87.627
2023-01-23T07:27:53.131Z,87.173
2023-01-23T07:28:52.799Z,86.878
2023-01-23T07:29:52.808Z,86.527
2023-01-23T07:30:52.667Z,86.424
2023-01-23T07:31:53.349Z,86.779
2023-01-23T07:32:53.092Z,86.262
2023-01-23T07:33:52.805Z,86.292
2023-01-23T07:34:52.642Z,86.556
2023-01-23T07:35:53.301Z,85.751
2023-01-23T07:36:52.959Z,86.123
2023-01-23T07:37:52.669Z,86.344
2023-01-23T07:38:53.360Z,86.487
2023-01-23T07:39:53.128Z,86.693
2023-01-23T07:40:52.875Z,86.519
2023-01-23T07:41:52.686Z,86.353
2023-01-23T07:42:52.657Z,86.231
2023-01-23T07:43:52.461Z,86.485
2023-01-23T07:44:53.132Z,86.685
2023-01-23T07:45:52.846Z,86.691
2023-01-23T07:46:52.863Z,86.781
2023-01-23T07:47:52.717Z,86.365
2023-01-23T07:48:52.426Z,86.306
2023-01-23T07:49:53.181Z,86.454
2023-01-23T07:50:53.035Z,86.590
2023-01-23T07:51:52.982Z,86.267
2023-01-23T07:52:52.662Z,86.502
2023-01-23T07:53:52.452Z,86.576
2023-01-23T07:54:53.126Z,86.777
2023-01-23T07:55:52.915Z,86.622
2023-01-23T07:56:52.668Z,86.470
2023-01-23T07:57:53.400Z,86.578
2023-01-23T07:58:53.964Z,86.651
2023-01-23T07:59:52.511Z,86.861
2023-01-23T08:00:53.465Z,86.565
2023-01-23T08:01:53.534Z,86.554
2023-01-23T08:02:53.375Z,86.910
2023-01-23T08:03:53.154Z,86.823
2023-01-23T08:04:52.888Z,86.563
2023-01-23T08:05:52.640Z,86.519
2023-01-23T08:06:52.565Z,86.790
2023-01-23T08:08:11.644Z,86.672
2023-01-23T08:09:52.869Z,87.410
2023-01-23T08:10:52.646Z,87.374
2023-01-23T08:11:53.818Z,87.549
2023-01-23T08:12:52.598Z,87.734
2023-01-23T08:13:53.414Z,87.643
2023-01-23T08:14:53.266Z,87.923
2023-01-23T08:15:53.014Z,88.085
2023-01-23T08:16:52.880Z,87.208
2023-01-23T08:17:52.660Z,87.524
2023-01-23T08:18:52.467Z,87.589
2023-01-23T08:19:53.309Z,88.144
2023-01-23T08:20:53.210Z,88.491
2023-01-23T08:21:53.035Z,88.533
2023-01-23T08:22:52.889Z,88.640
2023-01-23T08:23:52.658Z,88.747
2023-01-23T08:24:52.524Z,88.669
2023-01-23T08:25:53.338Z,88.709
2023-01-23T08:26:53.151Z,88.909
2023-01-23T08:27:52.791Z,88.778
2023-01-23T08:28:52.556Z,88.848
2023-01-23T08:29:53.237Z,88.883
2023-01-23T08:30:53.121Z,88.898
2023-01-23T08:31:53.392Z,88.934
2023-01-23T08:32:53.352Z,88.917
2023-01-23T08:33:53.147Z,89.075
2023-01-23T08:34:52.827Z,88.738
2023-01-23T08:35:52.775Z,89.155
2023-01-23T08:36:52.636Z,89.018
2023-01-23T08:37:52.358Z,88.820
2023-01-23T08:38:53.168Z,89.047
2023-01-23T08:39:53.162Z,88.892
2023-01-23T08:40:52.863Z,88.989
2023-01-23T08:41:52.506Z,89.102
2023-01-23T08:42:52.551Z,89.071
2023-01-23T08:43:53.313Z,88.955
2023-01-23T08:44:53.043Z,88.926
2023-01-23T08:45:52.991Z,88.963
2023-01-23T08:46:52.776Z,88.768
2023-01-23T08:47:52.529Z,88.738
2023-01-23T08:48:53.347Z,88.553
2023-01-23T08:49:53.331Z,88.362
2023-01-23T08:50:53.129Z,88.446
2023-01-23T08:51:52.926Z,88.299
2023-01-23T08:52:52.712Z,88.381
2023-01-23T08:53:52.495Z,88.024
2023-01-23T08:54:53.175Z,87.866
2023-01-23T08:55:52.951Z,87.763
2023-01-23T08:56:52.799Z,87.553
2023-01-23T08:57:52.516Z,87.254
2023-01-23T08:58:53.223Z,87.189
2023-01-23T08:59:53.000Z,87.107
2023-01-23T09:00:52.864Z,87.101
2023-01-23T09:01:52.726Z,86.643
2023-01-23T09:02:52.707Z,86.657
2023-01-23T09:03:52.620Z,86.716
2023-01-23T09:04:53.392Z,86.889
2023-01-23T09:05:53.221Z,86.821
2023-01-23T09:06:52.925Z,86.901
2023-01-23T09:07:52.757Z,86.815
2023-01-23T09:08:54.072Z,86.405
2023-01-23T09:09:52.843Z,86.645
2023-01-23T09:10:52.648Z,86.746
2023-01-23T09:11:53.326Z,86.556
2023-01-23T09:12:53.116Z,86.664
2023-01-23T09:13:55.493Z,86.218
2023-01-23T09:14:53.251Z,86.090
2023-01-23T09:15:53.119Z,85.951
2023-01-23T09:16:53.254Z,86.264
2023-01-23T09:17:52.998Z,85.865
2023-01-23T09:18:52.896Z,85.894
2023-01-23T09:19:52.716Z,86.494
2023-01-23T09:20:52.467Z,86.473
2023-01-23T09:21:53.042Z,86.525
2023-01-23T09:22:52.748Z,86.472
2023-01-23T09:23:52.522Z,85.945
2023-01-23T09:24:53.179Z,86.121
2023-01-23T09:25:52.936Z,86.269
2023-01-23T09:26:52.698Z,86.248
2023-01-23T09:27:52.602Z,85.657
2023-01-23T09:28:53.331Z,85.667
2023-01-23T09:29:53.072Z,85.737
2023-01-23T09:30:52.839Z,85.537
2023-01-23T09:31:52.725Z,85.993
2023-01-23T09:32:52.542Z,85.207
2023-01-23T09:33:53.339Z,84.639
2023-01-23T09:34:53.253Z,84.728
2023-01-23T09:35:53.230Z,84.297
2023-01-23T09:36:57.830Z,84.724
2023-01-23T09:37:58.378Z,84.681
2023-01-23T09:39:53.024Z,85.629
2023-01-23T09:40:52.766Z,86.035
2023-01-23T09:41:52.461Z,86.058
2023-01-23T09:42:52.647Z,86.283
2023-01-23T09:43:52.613Z,86.102
2023-01-23T09:44:53.347Z,85.770
2023-01-23T09:45:53.722Z,85.642
2023-01-23T09:46:52.688Z,85.655
2023-01-23T09:47:55.127Z,85.413
2023-01-23T09:48:52.991Z,85.981
2023-01-23T09:50:52.934Z,85.905
2023-01-23T09:51:52.834Z,85.417
2023-01-23T09:52:52.662Z,85.905
2023-01-23T09:53:53.427Z,85.793
2023-01-23T09:54:53.237Z,85.499
2023-01-23T09:55:52.975Z,85.814
2023-01-23T09:56:52.645Z,85.726
2023-01-23T09:57:53.430Z,85.707
2023-01-23T09:58:53.214Z,85.394
2023-01-23T10:00:00.001Z,85.091
2023-01-23T10:00:53.049Z,85.009
2023-01-23T10:01:53.189Z,84.953
2023-01-23T10:02:53.251Z,84.660
2023-01-23T10:03:53.195Z,84.393
2023-01-23T10:04:52.871Z,84.002
2023-01-23T10:05:52.592Z,83.742
2023-01-23T10:06:53.303Z,84.438
2023-01-23T10:07:53.045Z,84.274
2023-01-23T10:08:52.707Z,84.772
2023-01-23T10:09:52.463Z,84.988
2023-01-23T10:10:52.429Z,85.331
2023-01-23T10:11:53.131Z,85.201
2023-01-23T10:12:52.840Z,85.056
2023-01-23T10:13:52.839Z,85.115
2023-01-23T10:14:54.666Z,85.035
2023-01-23T10:15:55.432Z,84.650
2023-01-23T10:17:52.940Z,84.970
2023-01-23T10:18:52.875Z,84.848
2023-01-23T10:19:52.655Z,85.087
2023-01-23T10:20:52.591Z,84.850
2023-01-23T10:21:52.517Z,85.087
2023-01-23T10:22:53.295Z,85.043
2023-01-23T10:23:53.063Z,84.694
2023-01-23T10:24:57.786Z,85.041
2023-01-23T10:25:52.555Z,84.654
2023-01-23T10:26:53.233Z,83.986
2023-01-23T10:27:52.914Z,83.425
2023-01-23T10:28:52.728Z,84.061
2023-01-23T10:29:53.424Z,83.639
2023-01-23T10:30:53.540Z,83.914
2023-01-23T10:31:52.918Z,83.832
2023-01-23T10:32:52.820Z,84.036
2023-01-23T10:33:52.516Z,83.958
2023-01-23T10:34:52.663Z,83.229
2023-01-23T10:35:52.568Z,83.387
2023-01-23T10:36:58.220Z,83.553
2023-01-23T10:37:52.988Z,84.032
2023-01-23T10:38:52.748Z,83.734
2023-01-23T10:39:52.859Z,83.513
2023-01-23T10:40:52.823Z,83.586
2023-01-23T10:42:02.234Z,83.052
2023-01-23T10:42:53.071Z,83.223
2023-01-23T10:43:52.905Z,82.952
2023-01-23T10:44:52.561Z,83.727
2023-01-23T10:45:52.517Z,83.012
2023-01-23T10:46:55.683Z,82.893
2023-01-23T10:47:57.386Z,82.725
2023-01-23T10:48:52.444Z,83.097
2023-01-23T10:49:53.313Z,83.025
2023-01-23T10:50:53.343Z,83.042
2023-01-23T10:51:53.279Z,83.111
2023-01-23T10:52:52.951Z,83.023
2023-01-23T10:53:52.771Z,83.134
2023-01-23T10:54:53.322Z,83.050
2023-01-23T10:55:53.187Z,82.592
2023-01-23T10:56:52.979Z,81.703
2023-01-23T10:57:52.724Z,81.306
2023-01-23T10:58:52.597Z,80.767
2023-01-23T10:59:52.426Z,80.702
2023-01-23T11:00:53.310Z,80.183
2023-01-23T11:01:58.357Z,79.185
2023-01-23T11:02:52.777Z,80.089
2023-01-23T11:03:52.643Z,81.034
2023-01-23T11:05:58.156Z,81.066
2023-01-23T11:06:52.912Z,81.444
2023-01-23T11:07:52.650Z,81.242
2023-01-23T11:08:53.354Z,80.229
2023-01-23T11:09:53.028Z,80.545
2023-01-23T11:10:52.920Z,80.723
2023-01-23T11:11:52.656Z,80.158
2023-01-23T11:12:53.472Z,80.969
2023-01-23T11:13:53.155Z,80.713
2023-01-23T11:14:53.072Z,80.727
2023-01-23T11:15:53.022Z,80.555
2023-01-23T11:16:52.824Z,80.563
2023-01-23T11:17:52.620Z,81.116
2023-01-23T11:18:52.483Z,81.430
2023-01-23T11:19:52.982Z,81.419
2023-01-23T11:20:52.744Z,81.881
2023-01-23T11:21:52.694Z,82.058
2023-01-23T11:22:52.854Z,82.518
2023-01-23T11:23:52.711Z,82.420
2023-01-23T11:24:57.323Z,82.315
2023-01-23T11:25:53.042Z,82.434
2023-01-23T11:26:54.710Z,82.170
2023-01-23T11:27:52.507Z,82.239
2023-01-23T11:28:53.275Z,82.216
2023-01-23T11:29:53.311Z,82.334
2023-01-23T11:31:11.819Z,82.491
2023-01-23T11:32:53.368Z,82.979
2023-01-23T11:33:53.099Z,82.691
2023-01-23T11:34:53.106Z,82.840
2023-01-23T11:35:55.325Z,82.762
2023-01-23T11:36:53.255Z,82.420
2023-01-23T11:37:53.063Z,82.836
2023-01-23T11:38:54.939Z,82.544
2023-01-23T11:39:52.785Z,82.718
2023-01-23T11:40:52.712Z,82.340
2023-01-23T11:41:52.698Z,82.256
2023-01-23T11:42:52.558Z,82.157
2023-01-23T11:43:53.285Z,82.510
2023-01-23T11:44:58.075Z,81.972
2023-01-23T11:45:53.200Z,82.178
2023-01-23T11:46:53.237Z,81.297
2023-01-23T11:47:53.042Z,81.385
2023-01-23T11:48:52.702Z,81.140
2023-01-23T11:49:53.423Z,80.522
2023-01-23T11:50:57.695Z,80.355
2023-01-23T11:51:53.027Z,80.650
2023-01-23T11:52:53.084Z,80.822
2023-01-23T11:53:57.737Z,80.196
2023-01-23T11:54:52.558Z,80.124
2023-01-23T11:55:54.250Z,79.740
2023-01-23T11:56:53.065Z,80.612
2023-01-23T11:57:52.939Z,80.780
2023-01-23T11:58:57.815Z,80.563
2023-01-23T11:59:52.592Z,79.721
2023-01-23T12:00:52.383Z,79.971
2023-01-23T12:02:03.284Z,79.121
2023-01-23T12:03:53.015Z,79.813
2023-01-23T12:04:53.149Z,79.431
2023-01-23T12:05:53.072Z,79.721
2023-01-23T12:07:52.763Z,78.920
2023-01-23T12:08:52.598Z,79.151
2023-01-23T12:09:52.701Z,78.554
2023-01-23T12:10:52.508Z,78.821
2023-01-23T12:11:53.292Z,78.958
2023-01-23T12:12:53.112Z,79.563
2023-01-23T12:13:52.931Z,79.727
2023-01-23T12:14:52.756Z,79.178
2023-01-23T12:15:52.758Z,79.300
2023-01-23T12:16:52.884Z,79.552
2023-01-23T12:17:52.643Z,79.113
2023-01-23T12:18:52.470Z,79.100
2023-01-23T12:19:53.342Z,79.313
2023-01-23T12:20:53.119Z,78.743
2023-01-23T12:21:52.883Z,79.435
2023-01-23T12:22:52.711Z,79.336
2023-01-23T12:23:52.557Z,80.053
2023-01-23T12:24:53.236Z,79.157
2023-01-23T12:25:52.902Z,79.748
2023-01-23T12:26:52.770Z,79.241
2023-01-23T12:27:52.547Z,79.765
2023-01-23T12:28:53.279Z,79.750
2023-01-23T12:29:53.048Z,79.695
2023-01-23T12:30:52.740Z,78.602
2023-01-23T12:31:53.407Z,79.340
2023-01-23T12:32:53.483Z,79.441
2023-01-23T12:34:52.931Z,78.920
2023-01-23T12:35:52.647Z,78.300
2023-01-23T12:37:11.999Z,78.016
2023-01-23T12:39:03.997Z,78.173
2023-01-23T12:40:03.718Z,78.733
2023-01-23T12:41:04.310Z,78.314
2023-01-23T12:42:04.133Z,78.628
2023-01-23T12:43:03.923Z,78.688
2023-01-23T12:44:03.647Z,78.667
2023-01-23T12:45:04.438Z,78.503
2023-01-23T12:46:03.783Z,78.300
2023-01-23T12:47:03.591Z,77.890
2023-01-23T12:48:04.366Z,79.029
2023-01-23T12:49:04.222Z,78.045
2023-01-23T12:50:04.215Z,78.154
2023-01-23T12:51:04.450Z,77.604
2023-01-23T12:52:04.303Z,77.886
2023-01-23T12:53:04.274Z,78.199
2023-01-23T12:54:04.010Z,78.092
2023-01-23T12:55:03.838Z,77.562
2023-01-23T12:57:04.929Z,77.585
2023-01-23T12:58:11.315Z,77.633
2023-01-23T12:59:04.235Z,77.528
2023-01-23T13:00:04.080Z,76.912
2023-01-23T13:02:03.851Z,77.040
2023-01-23T13:03:03.843Z,77.373
2023-01-23T13:04:06.211Z,77.112
2023-01-23T13:05:03.979Z,77.425
2023-01-23T13:06:04.466Z,77.131
2023-01-23T13:07:05.844Z,77.001
2023-01-23T13:08:03.688Z,76.263
2023-01-23T13:09:18.326Z,76.769
2023-01-23T13:11:08.791Z,76.250
2023-01-23T13:12:08.620Z,76.448
2023-01-23T13:13:08.436Z,76.906